Time;durP1;ratioP1;P1;durP2;ratioP2;P2;SDS_P1;SDS_P2;PMS_P1;PMS_P2;Temp;Humidity;BMP_temperature;BMP_pressure;BME280_temperature;BME280_humidity;BME280_pressure;Samples;Min_cycle;Max_cycle;Signal;HPM_P1;HPM_P2
2023/10/19 00:00:49;;;;;;;7.47;4.80;;;;;;;;;;4979394;28;20042;-71
2023/10/19 00:03:17;;;;;;;8.15;5.03;;;;;;;;;;4972219;28;20031;-71
2023/10/19 00:05:47;;;;;;;5.90;4.68;;;;;;;;;;4969216;28;20080;-71
2023/10/19 00:10:42;;;;;;;9.98;4.85;;;;;;;;;;4969777;28;20041;-71
2023/10/19 00:13:11;;;;;;;8.18;5.05;;;;;;;;;;4976139;28;20014;-70
2023/10/19 00:15:48;;;;;;;7.35;5.10;;;;;;;;;;4980737;28;20121;-72
2023/10/19 00:23:13;;;;;;;8.90;5.10;;;;;;;;;;4981638;28;20042;-71
2023/10/19 00:25:42;;;;;;;8.38;5.70;;;;;;;;;;4968984;28;20452;-71
2023/10/19 00:28:08;;;;;;;7.18;5.20;;;;;;;;;;4969209;28;20035;-71
2023/10/19 00:30:37;;;;;;;9.35;5.53;;;;;;;;;;4967762;28;20077;-71
2023/10/19 00:33:03;;;;;;;6.13;4.70;;;;;;;;;;4969668;28;20039;-71
2023/10/19 00:35:42;;;;;;;7.40;4.90;;;;;;;;;;4969062;28;20045;-71
2023/10/19 00:40:58;;;;;;;5.80;4.40;;;;;;;;;;4969396;28;20035;-72
2023/10/19 00:43:36;;;;;;;7.53;4.30;;;;;;;;;;4968256;28;20058;-71
2023/10/19 00:46:05;;;;;;;5.50;4.28;;;;;;;;;;4967338;28;20477;-71
2023/10/19 00:48:32;;;;;;;5.18;4.03;;;;;;;;;;4967705;28;20508;-71
2023/10/19 00:51:09;;;;;;;8.55;4.47;;;;;;;;;;4967478;28;20050;-71
2023/10/19 00:53:37;;;;;;;7.43;4.00;;;;;;;;;;4967688;28;20035;-71
2023/10/19 00:56:09;;;;;;;7.07;4.40;;;;;;;;;;4967361;28;20500;-70
2023/10/19 00:58:36;;;;;;;6.15;4.25;;;;;;;;;;4976630;28;20508;-70
2023/10/19 01:01:05;;;;;;;5.40;4.10;;;;;;;;;;4975690;28;20037;-72
2023/10/19 01:03:36;;;;;;;7.75;4.70;;;;;;;;;;4967241;28;20031;-72
2023/10/19 01:06:10;;;;;;;5.75;4.25;;;;;;;;;;4962822;28;20038;-70
2023/10/19 01:08:42;;;;;;;6.65;4.88;;;;;;;;;;4967311;28;20030;-70
2023/10/19 01:11:15;;;;;;;4.82;4.03;;;;;;;;;;4967467;28;20047;-70
2023/10/19 01:13:44;;;;;;;6.30;4.88;;;;;;;;;;4976264;28;20221;-72
2023/10/19 01:16:20;;;;;;;6.68;4.57;;;;;;;;;;4974185;28;20038;-72
2023/10/19 01:18:48;;;;;;;10.93;4.63;;;;;;;;;;4975984;28;20369;-72
2023/10/19 01:21:14;;;;;;;5.15;4.22;;;;;;;;;;4986835;28;20029;-71
2023/10/19 01:23:46;;;;;;;6.32;4.60;;;;;;;;;;4978708;28;20039;-70
2023/10/19 01:26:18;;;;;;;9.85;5.18;;;;;;;;;;4952239;28;20033;-70
2023/10/19 01:28:47;;;;;;;11.18;5.40;;;;;;;;;;4971309;28;20030;-72
2023/10/19 01:33:49;;;;;;;9.18;4.60;;;;;;;;;;4971958;28;20039;-72
2023/10/19 01:36:24;;;;;;;6.00;4.85;;;;;;;;;;4971978;28;20031;-72
2023/10/19 01:38:55;;;;;;;6.53;4.75;;;;;;;;;;4980257;28;20109;-72
2023/10/19 01:41:23;;;;;;;6.32;4.80;;;;;;;;;;4990441;28;20041;-72
2023/10/19 01:43:54;;;;;;;7.38;4.90;;;;;;;;;;4991450;28;20620;-72
2023/10/19 01:46:21;;;;;;;7.28;4.80;;;;;;;;;;4975082;28;20084;-72
2023/10/19 01:48:55;;;;;;;5.95;4.57;;;;;;;;;;4974047;28;20039;-72
2023/10/19 01:51:29;;;;;;;5.60;4.38;;;;;;;;;;4975644;28;20039;-71
2023/10/19 01:53:58;;;;;;;6.00;4.72;;;;;;;;;;4975615;28;20027;-71
2023/10/19 01:56:24;;;;;;;6.05;4.82;;;;;;;;;;4990236;28;20079;-72
2023/10/19 01:58:58;;;;;;;6.38;4.35;;;;;;;;;;4974271;28;20110;-69
2023/10/19 02:03:55;;;;;;;6.82;4.85;;;;;;;;;;4974509;28;20397;-71
2023/10/19 02:06:26;;;;;;;6.50;4.68;;;;;;;;;;4972481;28;20039;-71
2023/10/19 02:11:47;;;;;;;6.38;4.50;;;;;;;;;;4974389;28;20037;-70
2023/10/19 02:14:15;;;;;;;7.95;4.03;;;;;;;;;;4975542;28;20527;-71
2023/10/19 02:16:52;;;;;;;5.50;4.10;;;;;;;;;;4971478;28;20030;-70
2023/10/19 02:19:23;;;;;;;7.45;4.03;;;;;;;;;;4974247;28;20063;-70
2023/10/19 02:21:58;;;;;;;5.80;4.10;;;;;;;;;;4973991;28;20034;-70
2023/10/19 02:24:25;;;;;;;5.93;4.10;;;;;;;;;;4973878;28;20027;-72
2023/10/19 02:26:55;;;;;;;6.00;4.30;;;;;;;;;;4973683;28;20041;-70
2023/10/19 02:29:25;;;;;;;6.97;5.10;;;;;;;;;;4975258;28;20046;-70
2023/10/19 02:31:53;;;;;;;5.68;4.20;;;;;;;;;;4974182;28;20046;-71
2023/10/19 02:34:18;;;;;;;6.55;4.90;;;;;;;;;;4974092;28;20113;-71
2023/10/19 02:36:45;;;;;;;5.18;4.20;;;;;;;;;;4975961;28;20108;-70
2023/10/19 02:39:14;;;;;;;6.05;4.22;;;;;;;;;;4974221;28;20062;-70
2023/10/19 02:41:43;;;;;;;6.03;4.20;;;;;;;;;;4973887;28;20453;-73
2023/10/19 02:44:19;;;;;;;8.52;4.90;;;;;;;;;;4989802;28;20019;-71
2023/10/19 02:46:46;;;;;;;10.05;5.40;;;;;;;;;;4974798;28;20039;-72
2023/10/19 02:49:15;;;;;;;6.63;4.38;;;;;;;;;;4975038;28;20177;-70
2023/10/19 02:51:45;;;;;;;6.93;4.80;;;;;;;;;;4973549;28;20078;-70
2023/10/19 02:54:19;;;;;;;8.23;4.38;;;;;;;;;;4973720;28;20027;-69
2023/10/19 02:56:49;;;;;;;6.20;4.00;;;;;;;;;;4973578;28;20077;-70
2023/10/19 02:59:16;;;;;;;7.85;4.68;;;;;;;;;;4973651;28;20045;-72
2023/10/19 03:01:46;;;;;;;7.28;4.70;;;;;;;;;;4973335;28;20105;-71
2023/10/19 03:04:12;;;;;;;7.90;4.78;;;;;;;;;;4974380;28;20118;-72
2023/10/19 03:06:40;;;;;;;7.93;5.25;;;;;;;;;;4974907;28;20126;-71
2023/10/19 03:09:13;;;;;;;7.57;4.95;;;;;;;;;;4974728;28;20034;-72
2023/10/19 03:11:43;;;;;;;7.63;5.40;;;;;;;;;;4971728;28;20066;-72
2023/10/19 03:14:11;;;;;;;5.50;4.45;;;;;;;;;;4973034;28;20488;-71
2023/10/19 03:16:38;;;;;;;8.98;5.25;;;;;;;;;;4972384;28;20453;-70
2023/10/19 03:19:04;;;;;;;10.05;5.30;;;;;;;;;;4972079;28;20481;-71
2023/10/19 03:21:41;;;;;;;9.82;5.80;;;;;;;;;;4971539;28;20030;-72
2023/10/19 03:24:12;;;;;;;10.13;5.50;;;;;;;;;;4971908;28;20034;-71
2023/10/19 03:26:43;;;;;;;7.10;5.25;;;;;;;;;;4973525;28;20424;-71
2023/10/19 03:29:15;;;;;;;7.63;4.57;;;;;;;;;;4971073;28;20054;-71
2023/10/19 03:31:45;;;;;;;6.97;5.40;;;;;;;;;;4971704;28;20082;-72
2023/10/19 03:34:12;;;;;;;7.55;5.25;;;;;;;;;;4973287;28;20034;-72
2023/10/19 03:36:39;;;;;;;7.15;5.70;;;;;;;;;;4972597;28;20045;-70
2023/10/19 03:39:14;;;;;;;6.82;4.93;;;;;;;;;;4973991;28;20125;-72
2023/10/19 03:41:45;;;;;;;16.55;5.80;;;;;;;;;;4972976;28;20481;-69
2023/10/19 03:44:44;;;;;;;8.43;5.57;;;;;;;;;;4967896;28;20066;-70
2023/10/19 03:47:11;;;;;;;6.57;4.80;;;;;;;;;;4986585;28;20030;-70
2023/10/19 03:49:39;;;;;;;10.15;5.93;;;;;;;;;;4970398;28;20034;-72
2023/10/19 03:54:39;;;;;;;10.63;6.53;;;;;;;;;;4971514;28;20118;-70
2023/10/19 03:57:10;;;;;;;12.05;5.45;;;;;;;;;;4972942;28;20400;-71
2023/10/19 03:59:37;;;;;;;7.22;5.20;;;;;;;;;;4971878;28;20535;-74
2023/10/19 04:02:13;;;;;;;7.68;5.65;;;;;;;;;;4971467;28;20023;-73
2023/10/19 04:04:49;;;;;;;7.25;5.90;;;;;;;;;;4972303;28;20514;-71
2023/10/19 04:07:21;;;;;;;10.52;6.47;;;;;;;;;;4972595;28;20117;-71
2023/10/19 04:12:36;;;;;;;12.93;6.72;;;;;;;;;;4972671;28;20177;-72
2023/10/19 04:15:15;;;;;;;19.65;7.80;;;;;;;;;;4972201;28;20027;-71
2023/10/19 04:17:48;;;;;;;16.83;7.65;;;;;;;;;;4953421;28;20043;-71
2023/10/19 04:22:46;;;;;;;11.43;6.60;;;;;;;;;;4972314;28;20030;-71
2023/10/19 04:25:16;;;;;;;13.10;6.70;;;;;;;;;;4978099;28;20446;-70
2023/10/19 04:27:43;;;;;;;25.23;8.02;;;;;;;;;;4991701;28;20061;-70
2023/10/19 04:30:16;;;;;;;19.13;7.60;;;;;;;;;;4992177;28;20429;-69
2023/10/19 04:32:46;;;;;;;22.52;7.47;;;;;;;;;;4991386;28;20096;-70
2023/10/19 04:35:14;;;;;;;24.75;7.80;;;;;;;;;;4988738;28;20039;-71
2023/10/19 04:37:44;;;;;;;17.17;8.18;;;;;;;;;;4966691;28;20424;-71
2023/10/19 04:40:11;;;;;;;23.30;8.10;;;;;;;;;;4972563;28;20358;-72
2023/10/19 04:42:39;;;;;;;16.23;7.03;;;;;;;;;;4972588;28;20026;-71
2023/10/19 04:45:06;;;;;;;24.90;8.52;;;;;;;;;;4972351;28;20564;-71
2023/10/19 04:47:35;;;;;;;23.55;8.60;;;;;;;;;;4972509;28;20516;-71
2023/10/19 04:50:02;;;;;;;31.52;9.40;;;;;;;;;;4972443;28;20042;-69
2023/10/19 04:52:29;;;;;;;28.80;7.43;;;;;;;;;;4972349;28;20025;-71
2023/10/19 04:54:55;;;;;;;29.40;6.63;;;;;;;;;;4972380;28;20038;-71
2023/10/19 04:57:21;;;;;;;7.40;5.85;;;;;;;;;;4971682;28;20393;-70
2023/10/19 04:59:47;;;;;;;7.28;5.65;;;;;;;;;;4972145;28;20074;-70
2023/10/19 05:02:13;;;;;;;7.68;5.18;;;;;;;;;;4975288;28;20477;-73
2023/10/19 05:04:40;;;;;;;12.00;6.75;;;;;;;;;;4975973;28;20035;-71
2023/10/19 05:07:09;;;;;;;6.40;5.10;;;;;;;;;;4975411;28;20029;-71
2023/10/19 05:09:38;;;;;;;7.43;4.13;;;;;;;;;;4976567;28;20039;-71
2023/10/19 05:12:08;;;;;;;7.28;4.15;;;;;;;;;;4975908;28;20027;-71
2023/10/19 05:14:38;;;;;;;18.38;4.72;;;;;;;;;;4975946;28;20113;-75
2023/10/19 05:17:05;;;;;;;21.17;6.10;;;;;;;;;;4975948;28;20093;-74
2023/10/19 05:19:34;;;;;;;7.95;3.45;;;;;;;;;;4975761;28;20019;-74
2023/10/19 05:22:01;;;;;;;6.15;3.40;;;;;;;;;;4975665;28;20030;-74
2023/10/19 05:24:28;;;;;;;6.18;3.65;;;;;;;;;;4974984;28;20095;-74
2023/10/19 05:26:54;;;;;;;5.30;3.50;;;;;;;;;;4975011;28;20433;-73
2023/10/19 05:29:20;;;;;;;5.38;3.80;;;;;;;;;;4978224;28;20122;-74
2023/10/19 05:31:47;;;;;;;6.45;4.70;;;;;;;;;;4975464;28;20035;-73
2023/10/19 05:34:12;;;;;;;8.32;4.43;;;;;;;;;;4975182;28;20031;-73
2023/10/19 05:36:39;;;;;;;7.32;4.22;;;;;;;;;;4975331;28;20051;-75
2023/10/19 05:39:07;;;;;;;6.28;3.97;;;;;;;;;;4975358;28;20030;-73
2023/10/19 05:41:34;;;;;;;7.10;4.50;;;;;;;;;;4975310;28;20122;-72
2023/10/19 05:44:00;;;;;;;5.85;4.18;;;;;;;;;;4975190;28;20065;-72
2023/10/19 05:46:28;;;;;;;5.32;4.07;;;;;;;;;;4967104;28;20453;-72
2023/10/19 05:48:56;;;;;;;5.90;3.40;;;;;;;;;;4975036;28;20122;-73
2023/10/19 05:51:22;;;;;;;21.58;6.05;;;;;;;;;;4975117;28;20031;-74
2023/10/19 05:53:48;;;;;;;13.48;4.93;;;;;;;;;;4974739;28;20511;-74
2023/10/19 05:56:16;;;;;;;12.27;4.25;;;;;;;;;;4974167;28;20042;-74
2023/10/19 05:58:43;;;;;;;10.13;3.42;;;;;;;;;;4973823;28;20097;-74
2023/10/19 06:01:09;;;;;;;7.05;3.35;;;;;;;;;;4973263;28;20054;-75
2023/10/19 06:03:34;;;;;;;27.77;4.88;;;;;;;;;;4973311;28;20046;-75
2023/10/19 06:06:00;;;;;;;7.13;3.58;;;;;;;;;;4978837;28;20477;-73
2023/10/19 06:08:27;;;;;;;11.23;3.08;;;;;;;;;;4968345;28;20114;-73
2023/10/19 06:10:53;;;;;;;27.00;4.00;;;;;;;;;;4954416;28;20058;-74
2023/10/19 06:13:19;;;;;;;7.63;3.30;;;;;;;;;;4954370;28;20462;-72
2023/10/19 06:15:44;;;;;;;9.30;2.70;;;;;;;;;;4954052;28;20073;-74
2023/10/19 06:18:10;;;;;;;3.95;2.35;;;;;;;;;;4954107;28;20075;-74
2023/10/19 06:20:37;;;;;;;6.35;2.20;;;;;;;;;;4953968;29;20043;-74
2023/10/19 06:23:06;;;;;;;6.28;2.80;;;;;;;;;;4954395;28;20068;-75
2023/10/19 06:25:36;;;;;;;7.32;2.70;;;;;;;;;;4954599;28;20417;-73
2023/10/19 06:28:02;;;;;;;4.20;2.10;;;;;;;;;;4952813;28;20486;-74
2023/10/19 06:30:28;;;;;;;5.82;2.28;;;;;;;;;;4952775;28;20042;-74
2023/10/19 06:32:57;;;;;;;3.80;2.00;;;;;;;;;;4954095;29;20126;-76
2023/10/19 06:35:23;;;;;;;3.42;2.17;;;;;;;;;;4954022;28;20034;-74
2023/10/19 06:37:49;;;;;;;9.07;2.45;;;;;;;;;;4953903;28;20504;-71
2023/10/19 06:40:16;;;;;;;9.60;2.92;;;;;;;;;;4953798;28;20031;-73
2023/10/19 06:42:45;;;;;;;4.65;2.47;;;;;;;;;;4953607;28;20035;-72
2023/10/19 06:45:13;;;;;;;7.50;2.80;;;;;;;;;;4986542;28;20110;-74
2023/10/19 06:47:49;;;;;;;9.50;3.00;;;;;;;;;;4992258;28;20164;-73
2023/10/19 06:50:19;;;;;;;6.10;2.58;;;;;;;;;;4993748;28;20042;-72
2023/10/19 06:52:49;;;;;;;7.65;2.53;;;;;;;;;;4993205;28;20038;-72
2023/10/19 06:55:19;;;;;;;5.78;2.75;;;;;;;;;;4933652;28;1745565;-73
2023/10/19 06:57:53;;;;;;;12.75;4.05;;;;;;;;;;4993769;28;20122;-73
2023/10/19 07:00:20;;;;;;;;;;;;;;;;;;4993719;28;20137;-71
2023/10/19 07:02:50;;;;;;;7.60;3.83;;;;;;;;;;4993241;28;20006;-74
2023/10/19 07:05:24;;;;;;;8.80;4.03;;;;;;;;;;4978278;28;20115;-74
2023/10/19 07:07:52;;;;;;;10.25;4.47;;;;;;;;;;4973239;28;20038;-72
2023/10/19 07:10:18;;;;;;;9.77;4.70;;;;;;;;;;4964116;28;20125;-73
2023/10/19 07:12:46;;;;;;;10.52;4.40;;;;;;;;;;4973463;28;20081;-73
2023/10/19 07:15:18;;;;;;;19.83;5.20;;;;;;;;;;4973331;28;20094;-73
2023/10/19 07:17:46;;;;;;;11.98;4.60;;;;;;;;;;4973607;28;20038;-74
2023/10/19 07:20:32;;;;;;;11.65;4.80;;;;;;;;;;4973596;28;20425;-76
2023/10/19 07:25:48;;;;;;;11.30;4.75;;;;;;;;;;4973087;28;20525;-75
2023/10/19 07:28:15;;;;;;;24.73;5.53;;;;;;;;;;4972985;28;20027;-74
2023/10/19 07:30:44;;;;;;;16.70;4.95;;;;;;;;;;4973782;28;20037;-74
2023/10/19 07:33:16;;;;;;;8.95;4.53;;;;;;;;;;4973626;28;20030;-72
2023/10/19 07:35:43;;;;;;;7.13;4.00;;;;;;;;;;4972912;28;20491;-72
2023/10/19 07:38:10;;;;;;;10.38;4.45;;;;;;;;;;4973098;28;20417;-71
2023/10/19 07:40:35;;;;;;;21.40;4.90;;;;;;;;;;4966461;28;20049;-73
2023/10/19 07:43:03;;;;;;;11.73;4.60;;;;;;;;;;4973076;28;20026;-70
2023/10/19 07:45:31;;;;;;;10.32;4.35;;;;;;;;;;4973185;28;20062;-73
2023/10/19 07:47:57;;;;;;;6.10;4.32;;;;;;;;;;4972711;28;20062;-72
2023/10/19 07:50:23;;;;;;;9.05;3.72;;;;;;;;;;4972691;28;20061;-71
2023/10/19 07:52:53;;;;;;;5.38;3.97;;;;;;;;;;4972699;28;20465;-72
2023/10/19 07:55:23;;;;;;;8.18;2.92;;;;;;;;;;4971265;28;20034;-71
2023/10/19 07:57:50;;;;;;;17.17;3.90;;;;;;;;;;4970257;28;20469;-72
2023/10/19 08:00:20;;;;;;;14.02;3.92;;;;;;;;;;4969321;28;20077;-73
2023/10/19 08:02:46;;;;;;;9.93;4.53;;;;;;;;;;4970743;28;20031;-72
2023/10/19 08:05:15;;;;;;;8.52;4.30;;;;;;;;;;4970909;28;20082;-71
2023/10/19 08:07:46;;;;;;;8.07;3.90;;;;;;;;;;4972053;28;20038;-72
2023/10/19 08:10:15;;;;;;;5.88;3.30;;;;;;;;;;4972426;28;20110;-73
2023/10/19 08:12:41;;;;;;;8.52;3.92;;;;;;;;;;4972860;28;20041;-73
2023/10/19 08:15:11;;;;;;;6.45;3.35;;;;;;;;;;4972390;28;20096;-73
2023/10/19 08:17:43;;;;;;;4.72;2.90;;;;;;;;;;4972370;28;20034;-73
2023/10/19 08:20:24;;;;;;;6.53;3.28;;;;;;;;;;4972109;28;20035;-72
2023/10/19 08:22:56;;;;;;;6.57;2.20;;;;;;;;;;4971878;28;20121;-71
2023/10/19 08:25:23;;;;;;;5.57;2.10;;;;;;;;;;4972461;28;20035;-72
2023/10/19 08:27:56;;;;;;;7.88;2.22;;;;;;;;;;4973909;28;20063;-72
2023/10/19 08:30:22;;;;;;;10.10;2.58;;;;;;;;;;4969738;28;20061;-71
2023/10/19 08:32:49;;;;;;;9.23;2.50;;;;;;;;;;4972223;28;20023;-72
2023/10/19 08:35:25;;;;;;;5.72;2.30;;;;;;;;;;4971796;28;20031;-73
2023/10/19 08:37:52;;;;;;;3.47;1.98;;;;;;;;;;4971652;28;20034;-73
2023/10/19 08:40:21;;;;;;;2.78;1.77;;;;;;;;;;4971486;28;20116;-73
2023/10/19 08:42:48;;;;;;;6.15;2.45;;;;;;;;;;4971506;28;20110;-74
2023/10/19 08:45:14;;;;;;;9.93;2.83;;;;;;;;;;4971884;28;20047;-73
2023/10/19 08:48:09;;;;;;;12.68;3.10;;;;;;;;;;4971974;28;20041;-72
2023/10/19 08:50:34;;;;;;;8.25;2.78;;;;;;;;;;4966882;28;20517;-71
2023/10/19 08:53:05;;;;;;;4.30;2.03;;;;;;;;;;4971668;28;20019;-72
2023/10/19 08:55:34;;;;;;;8.15;2.20;;;;;;;;;;4972082;28;20035;-71
2023/10/19 08:58:00;;;;;;;7.82;1.90;;;;;;;;;;4970465;28;20030;-72
2023/10/19 09:00:26;;;;;;;3.70;2.08;;;;;;;;;;4971861;28;20381;-73
2023/10/19 09:02:59;;;;;;;4.65;1.95;;;;;;;;;;4971618;28;20027;-71
2023/10/19 09:05:25;;;;;;;6.72;2.72;;;;;;;;;;4972169;28;20053;-72
2023/10/19 09:07:55;;;;;;;6.72;3.13;;;;;;;;;;4971910;28;20394;-73
2023/10/19 09:10:26;;;;;;;11.07;2.90;;;;;;;;;;4970457;28;20049;-71
2023/10/19 09:13:04;;;;;;;12.93;2.83;;;;;;;;;;4970503;28;20039;-71
2023/10/19 09:15:32;;;;;;;6.53;2.05;;;;;;;;;;4971865;28;20489;-73
2023/10/19 09:18:19;;;;;;;5.70;1.90;;;;;;;;;;4971872;28;20050;-73
2023/10/19 09:20:52;;;;;;;6.43;2.40;;;;;;;;;;4971940;28;20049;-72
2023/10/19 09:23:27;;;;;;;4.03;1.90;;;;;;;;;;4971257;28;20042;-72
2023/10/19 09:25:53;;;;;;;3.58;1.95;;;;;;;;;;4971579;28;20035;-72
2023/10/19 09:28:19;;;;;;;4.55;2.10;;;;;;;;;;4971404;28;20022;-72
2023/10/19 09:30:46;;;;;;;5.47;2.05;;;;;;;;;;4971882;28;20053;-72
2023/10/19 09:33:17;;;;;;;6.10;2.25;;;;;;;;;;4971553;28;20416;-71
2023/10/19 09:35:50;;;;;;;7.20;2.80;;;;;;;;;;4971169;28;20454;-73
2023/10/19 09:38:21;;;;;;;15.18;4.22;;;;;;;;;;4971895;28;20110;-72
2023/10/19 09:40:54;;;;;;;7.57;3.72;;;;;;;;;;4971738;28;20070;-72
2023/10/19 09:43:44;;;;;;;4.75;2.53;;;;;;;;;;4971599;28;20457;-70
2023/10/19 09:46:14;;;;;;;8.82;2.40;;;;;;;;;;4971230;28;20047;-71
2023/10/19 09:48:47;;;;;;;13.90;3.50;;;;;;;;;;4975156;28;20034;-71
2023/10/19 09:51:16;;;;;;;6.75;2.30;;;;;;;;;;4975208;28;20043;-73
2023/10/19 09:53:45;;;;;;;8.95;1.95;;;;;;;;;;4975997;28;20118;-72
2023/10/19 09:56:18;;;;;;;5.68;2.20;;;;;;;;;;4974473;28;20035;-74
2023/10/19 09:58:49;;;;;;;;;;;;;;;;;;4975914;28;20110;-73
2023/10/19 10:01:15;;;;;;;4.45;1.70;;;;;;;;;;4974525;28;19921;-72
2023/10/19 10:03:52;;;;;;;7.53;1.92;;;;;;;;;;4974492;28;20027;-72
2023/10/19 10:06:50;;;;;;;5.13;1.88;;;;;;;;;;4973027;28;20130;-71
2023/10/19 10:09:21;;;;;;;4.10;1.90;;;;;;;;;;4973460;28;20039;-71
2023/10/19 10:11:52;;;;;;;6.55;2.92;;;;;;;;;;4974130;28;20061;-72
2023/10/19 10:14:28;;;;;;;4.72;1.80;;;;;;;;;;4974244;28;20193;-72
2023/10/19 10:17:05;;;;;;;4.10;2.03;;;;;;;;;;4973870;28;20117;-72
2023/10/19 10:19:38;;;;;;;4.25;2.28;;;;;;;;;;4974071;28;20093;-71
2023/10/19 10:22:11;;;;;;;18.48;7.75;;;;;;;;;;4975407;28;20045;-71
2023/10/19 10:24:44;;;;;;;8.20;3.03;;;;;;;;;;4973547;28;20469;-72
2023/10/19 10:27:13;;;;;;;4.07;2.13;;;;;;;;;;4973786;28;20043;-72
2023/10/19 10:30:01;;;;;;;3.92;2.03;;;;;;;;;;4972049;28;20035;-70
2023/10/19 10:32:43;;;;;;;4.78;1.60;;;;;;;;;;4974515;28;20453;-72
2023/10/19 10:35:08;;;;;;;4.03;1.65;;;;;;;;;;4973354;28;20449;-72
2023/10/19 10:37:37;;;;;;;2.50;1.50;;;;;;;;;;4973298;28;20023;-71
2023/10/19 10:40:05;;;;;;;8.57;1.58;;;;;;;;;;4973458;28;20490;-72
2023/10/19 10:42:31;;;;;;;2.97;1.40;;;;;;;;;;4971939;28;20038;-72
2023/10/19 10:44:58;;;;;;;5.18;1.50;;;;;;;;;;4973129;28;20057;-73
2023/10/19 10:47:29;;;;;;;5.10;1.85;;;;;;;;;;4973002;28;20118;-71
2023/10/19 10:49:59;;;;;;;5.25;1.50;;;;;;;;;;4972168;28;20041;-72
2023/10/19 10:52:31;;;;;;;8.65;2.20;;;;;;;;;;4972680;28;20465;-71
2023/10/19 10:55:10;;;;;;;5.13;2.10;;;;;;;;;;4970520;28;20035;-71
2023/10/19 10:57:37;;;;;;;5.32;1.67;;;;;;;;;;4972144;28;20543;-73
2023/10/19 11:00:05;;;;;;;5.30;2.22;;;;;;;;;;4972758;28;20484;-73
2023/10/19 11:02:30;;;;;;;6.05;2.15;;;;;;;;;;4973995;28;20039;-72
2023/10/19 11:04:56;;;;;;;4.05;2.22;;;;;;;;;;4971409;28;20106;-71
2023/10/19 11:07:22;;;;;;;3.47;1.85;;;;;;;;;;4973059;28;20129;-72
2023/10/19 11:09:47;;;;;;;4.65;2.20;;;;;;;;;;4973459;28;20500;-73
2023/10/19 11:12:17;;;;;;;7.30;2.38;;;;;;;;;;4971305;28;20042;-72
2023/10/19 11:15:05;;;;;;;8.88;2.50;;;;;;;;;;4989145;28;20024;-73
2023/10/19 11:17:31;;;;;;;15.13;2.80;;;;;;;;;;4991706;28;20580;-72
2023/10/19 11:19:58;;;;;;;3.75;1.75;;;;;;;;;;4992813;28;20149;-73
2023/10/19 11:22:24;;;;;;;6.20;2.00;;;;;;;;;;4992695;28;20500;-72
2023/10/19 11:24:53;;;;;;;5.10;2.05;;;;;;;;;;4990380;28;20034;-70
2023/10/19 11:27:26;;;;;;;5.03;2.47;;;;;;;;;;4992462;28;20046;-72
2023/10/19 11:29:58;;;;;;;;;;;;;;;;;;4988042;28;20030;-71
2023/10/19 11:32:25;;;;;;;9.45;2.05;;;;;;;;;;4973855;28;20391;-72
2023/10/19 11:34:57;;;;;;;8.27;2.85;;;;;;;;;;4973084;28;20030;-73
2023/10/19 11:37:23;;;;;;;4.78;2.10;;;;;;;;;;4973145;28;20408;-72
2023/10/19 11:39:52;;;;;;;4.03;1.92;;;;;;;;;;4988312;28;20034;-72
2023/10/19 11:42:18;;;;;;;3.40;2.15;;;;;;;;;;4973158;28;20034;-72
2023/10/19 11:44:45;;;;;;;11.82;2.50;;;;;;;;;;4972981;28;20485;-72
2023/10/19 11:47:11;;;;;;;6.60;2.22;;;;;;;;;;4973291;28;20109;-71
2023/10/19 11:49:37;;;;;;;4.68;1.48;;;;;;;;;;4973873;28;20457;-73
2023/10/19 11:52:09;;;;;;;7.18;1.98;;;;;;;;;;4973172;28;20185;-71
2023/10/19 11:54:35;;;;;;;4.15;1.80;;;;;;;;;;4973064;28;20035;-71
2023/10/19 11:57:01;;;;;;;6.15;2.20;;;;;;;;;;4973103;28;20033;-72
2023/10/19 11:59:27;;;;;;;4.68;1.92;;;;;;;;;;4973027;28;20038;-71
2023/10/19 12:01:54;;;;;;;9.95;2.63;;;;;;;;;;4972537;28;20026;-71
2023/10/19 12:04:20;;;;;;;6.82;1.80;;;;;;;;;;4972589;28;20122;-71
2023/10/19 12:06:48;;;;;;;6.63;2.55;;;;;;;;;;4972514;28;20050;-72
2023/10/19 12:09:14;;;;;;;10.82;2.63;;;;;;;;;;4972458;28;20045;-73
2023/10/19 12:11:41;;;;;;;6.32;2.70;;;;;;;;;;4972984;28;20034;-71
2023/10/19 12:14:11;;;;;;;6.90;2.38;;;;;;;;;;4972634;28;20077;-71
2023/10/19 12:16:39;;;;;;;4.10;2.47;;;;;;;;;;4971353;28;20042;-72
2023/10/19 12:19:05;;;;;;;4.47;2.17;;;;;;;;;;4972730;28;20085;-72
2023/10/19 12:21:31;;;;;;;6.90;2.50;;;;;;;;;;4971641;28;20042;-72
2023/10/19 12:23:59;;;;;;;6.13;2.17;;;;;;;;;;4972607;28;20027;-73
2023/10/19 12:26:25;;;;;;;9.63;2.60;;;;;;;;;;4972548;28;20030;-73
2023/10/19 12:28:50;;;;;;;11.77;3.00;;;;;;;;;;4972295;28;20030;-71
2023/10/19 12:31:18;;;;;;;10.65;3.00;;;;;;;;;;4972533;28;20049;-73
2023/10/19 12:33:44;;;;;;;3.67;1.80;;;;;;;;;;4972666;28;20057;-72
2023/10/19 12:38:54;;;;;;;5.80;2.17;;;;;;;;;;4971849;28;20493;-72
2023/10/19 12:41:21;;;;;;;6.75;2.03;;;;;;;;;;4972054;28;20034;-70
2023/10/19 12:43:47;;;;;;;5.43;1.83;;;;;;;;;;4972467;28;20041;-72
2023/10/19 12:46:15;;;;;;;3.33;1.60;;;;;;;;;;4972671;28;20059;-72
2023/10/19 12:48:42;;;;;;;4.85;1.92;;;;;;;;;;4973083;28;20130;-73
2023/10/19 12:51:11;;;;;;;10.52;3.15;;;;;;;;;;4987693;28;20453;-74
2023/10/19 12:53:41;;;;;;;4.13;2.13;;;;;;;;;;4970906;28;20113;-74
2023/10/19 12:56:10;;;;;;;4.88;1.80;;;;;;;;;;4971552;28;20085;-73
2023/10/19 12:58:37;;;;;;;3.22;2.05;;;;;;;;;;4973982;28;20027;-73
2023/10/19 13:01:05;;;;;;;5.10;2.20;;;;;;;;;;4973035;28;20113;-72
2023/10/19 13:03:32;;;;;;;9.13;2.53;;;;;;;;;;4986990;28;20099;-72
2023/10/19 13:05:58;;;;;;;5.90;2.13;;;;;;;;;;4972108;28;20046;-72
2023/10/19 13:08:27;;;;;;;7.65;2.50;;;;;;;;;;4971378;28;20022;-71
2023/10/19 13:10:54;;;;;;;6.28;2.75;;;;;;;;;;4972055;28;20082;-72
2023/10/19 13:13:23;;;;;;;3.83;1.70;;;;;;;;;;4971867;28;20370;-72
2023/10/19 13:15:49;;;;;;;4.93;1.90;;;;;;;;;;4972029;28;20109;-72
2023/10/19 13:18:24;;;;;;;4.00;1.70;;;;;;;;;;4972257;28;20043;-72
2023/10/19 13:20:53;;;;;;;9.35;2.38;;;;;;;;;;4971513;28;20043;-72
2023/10/19 13:23:21;;;;;;;8.20;2.25;;;;;;;;;;4975273;28;20029;-73
2023/10/19 13:25:53;;;;;;;10.75;2.80;;;;;;;;;;4975713;28;20051;-73
2023/10/19 13:28:20;;;;;;;7.82;2.20;;;;;;;;;;4975874;28;20039;-73
2023/10/19 13:30:50;;;;;;;9.07;2.20;;;;;;;;;;4975562;28;20500;-70
2023/10/19 13:33:18;;;;;;;6.40;2.70;;;;;;;;;;4975738;28;20482;-72
2023/10/19 13:35:45;;;;;;;3.80;2.13;;;;;;;;;;4975670;28;20018;-70
2023/10/19 13:38:15;;;;;;;5.85;2.10;;;;;;;;;;4975898;28;20035;-71
2023/10/19 13:40:42;;;;;;;4.88;2.10;;;;;;;;;;4975899;28;20039;-71
2023/10/19 13:43:13;;;;;;;6.60;1.98;;;;;;;;;;4990461;28;20513;-72
2023/10/19 13:45:41;;;;;;;8.93;2.22;;;;;;;;;;4974016;28;20144;-71
2023/10/19 13:48:09;;;;;;;7.10;2.45;;;;;;;;;;4974516;28;20125;-71
2023/10/19 13:50:36;;;;;;;5.90;2.00;;;;;;;;;;4975331;28;20042;-71
2023/10/19 13:53:04;;;;;;;2.90;1.80;;;;;;;;;;4974986;28;20035;-70
2023/10/19 13:55:31;;;;;;;6.55;2.00;;;;;;;;;;4974303;28;20390;-71
2023/10/19 13:57:57;;;;;;;7.65;2.72;;;;;;;;;;4974711;28;20397;-71
2023/10/19 14:03:05;;;;;;;4.40;2.72;;;;;;;;;;4975149;28;20180;-71
2023/10/19 14:05:47;;;;;;;3.30;1.80;;;;;;;;;;4973980;28;20054;-71
2023/10/19 14:08:14;;;;;;;10.07;3.40;;;;;;;;;;4967893;28;20085;-71
2023/10/19 14:10:43;;;;;;;4.82;2.15;;;;;;;;;;4974796;28;20105;-72
2023/10/19 14:13:11;;;;;;;9.43;2.55;;;;;;;;;;4974894;28;20373;-71
2023/10/19 14:15:37;;;;;;;6.40;2.38;;;;;;;;;;4974676;28;20023;-72
2023/10/19 14:18:04;;;;;;;5.97;2.10;;;;;;;;;;4973592;28;20528;-73
2023/10/19 14:20:31;;;;;;;3.45;2.00;;;;;;;;;;4975183;28;20109;-71
2023/10/19 14:22:57;;;;;;;4.80;2.03;;;;;;;;;;4974850;28;20035;-71
2023/10/19 14:25:23;;;;;;;7.25;2.60;;;;;;;;;;4975174;28;20030;-72
2023/10/19 14:27:50;;;;;;;3.58;1.90;;;;;;;;;;4974579;28;20081;-73
2023/10/19 14:30:22;;;;;;;2.97;1.73;;;;;;;;;;4972807;28;20489;-71
2023/10/19 14:32:49;;;;;;;5.75;2.40;;;;;;;;;;4974696;28;20432;-71
2023/10/19 14:35:19;;;;;;;4.68;2.00;;;;;;;;;;4974362;28;20054;-70
2023/10/19 14:37:51;;;;;;;5.40;1.95;;;;;;;;;;4971871;28;20097;-72
2023/10/19 14:40:24;;;;;;;6.88;2.60;;;;;;;;;;4974526;28;20382;-71
2023/10/19 14:42:53;;;;;;;4.07;1.63;;;;;;;;;;4974160;28;20063;-71
2023/10/19 14:45:20;;;;;;;7.00;2.25;;;;;;;;;;4973771;28;20093;-71
2023/10/19 14:47:52;;;;;;;4.85;2.10;;;;;;;;;;4973854;28;20125;-71
2023/10/19 14:50:19;;;;;;;8.10;2.15;;;;;;;;;;4973726;28;20031;-72
2023/10/19 14:52:48;;;;;;;4.93;2.60;;;;;;;;;;4973938;28;20065;-71
2023/10/19 14:55:15;;;;;;;6.95;2.30;;;;;;;;;;4973768;28;20116;-71
2023/10/19 14:57:48;;;;;;;6.45;2.40;;;;;;;;;;4973737;28;20069;-71
2023/10/19 15:00:22;;;;;;;4.78;2.13;;;;;;;;;;4973846;28;20100;-72
2023/10/19 15:02:54;;;;;;;2.85;1.77;;;;;;;;;;4973104;28;20560;-71
2023/10/19 15:05:21;;;;;;;4.47;1.77;;;;;;;;;;4973491;28;20046;-72
2023/10/19 15:07:51;;;;;;;4.63;2.00;;;;;;;;;;4973541;28;20401;-71
2023/10/19 15:10:22;;;;;;;7.68;2.65;;;;;;;;;;4973693;28;20038;-72
2023/10/19 15:12:48;;;;;;;6.00;2.35;;;;;;;;;;4974012;28;20045;-72
2023/10/19 15:15:14;;;;;;;7.10;2.85;;;;;;;;;;4973126;28;20421;-72
2023/10/19 15:17:52;;;;;;;6.03;2.80;;;;;;;;;;4971725;28;20034;-72
2023/10/19 15:20:19;;;;;;;5.28;2.28;;;;;;;;;;4973089;28;20212;-72
2023/10/19 15:22:47;;;;;;;3.85;2.15;;;;;;;;;;4972981;28;20110;-71
2023/10/19 15:25:14;;;;;;;7.32;2.45;;;;;;;;;;4972690;28;20129;-71
2023/10/19 15:27:42;;;;;;;6.65;2.35;;;;;;;;;;4972434;28;20037;-72